createdAt,value
2018-09-10T00:00:59.521Z,1016.93
2018-09-10T00:01:59.505Z,1016.91
2018-09-10T00:02:59.485Z,1016.92
2018-09-10T00:03:59.469Z,1016.90
2018-09-10T00:04:59.454Z,1016.89
2018-09-10T00:05:59.434Z,1016.91
2018-09-10T00:06:59.417Z,1016.94
2018-09-10T00:07:59.402Z,1016.91
2018-09-10T00:08:59.384Z,1016.95
2018-09-10T00:09:59.365Z,1016.92
2018-09-10T00:10:59.348Z,1016.90
2018-09-10T00:11:59.331Z,1016.92
2018-09-10T00:12:59.313Z,1016.95
2018-09-10T00:13:59.296Z,1016.93
2018-09-10T00:14:59.277Z,1016.91
2018-09-10T00:15:59.259Z,1016.92
2018-09-10T00:16:59.244Z,1016.93
2018-09-10T00:17:59.226Z,1016.92
2018-09-10T00:18:59.206Z,1016.89
2018-09-10T00:19:59.191Z,1016.92
2018-09-10T00:20:59.175Z,1016.93
2018-09-10T00:21:59.157Z,1016.91
2018-09-10T00:22:59.141Z,1016.94
2018-09-10T00:23:59.122Z,1016.90
2018-09-10T00:24:59.103Z,1016.94
2018-09-10T00:25:59.088Z,1016.94
2018-09-10T00:26:59.070Z,1016.93
2018-09-10T00:27:59.051Z,1017.00
2018-09-10T00:28:59.034Z,1016.96
2018-09-10T00:29:59.026Z,1017.01
2018-09-10T00:30:59.000Z,1017.02
2018-09-10T00:31:58.981Z,1017.02
2018-09-10T00:32:58.965Z,1017.03
2018-09-10T00:33:58.947Z,1017.05
2018-09-10T00:34:58.928Z,1017.02
2018-09-10T00:35:58.918Z,1017.07
2018-09-10T00:36:58.893Z,1017.04
2018-09-10T00:37:58.874Z,1017.04
2018-09-10T00:38:58.857Z,1017.02
2018-09-10T00:39:58.839Z,1017.00
2018-09-10T00:40:58.823Z,1017.03
2018-09-10T00:41:58.809Z,1017.00
2018-09-10T00:42:58.786Z,1017.03
2018-09-10T00:43:58.772Z,1017.03
2018-09-10T00:44:58.757Z,1017.01
2018-09-10T00:45:58.736Z,1016.99
2018-09-10T00:46:58.717Z,1016.96
2018-09-10T00:47:58.704Z,1017.02
2018-09-10T00:48:58.683Z,1017.01
2018-09-10T00:49:58.666Z,1017.04
2018-09-10T00:50:58.682Z,1017.04
2018-09-10T00:51:58.630Z,1017.03
2018-09-10T00:52:58.612Z,1017.06
2018-09-10T00:53:58.595Z,1017.09
2018-09-10T00:54:58.577Z,1017.09
2018-09-10T00:55:58.560Z,1017.07
2018-09-10T00:56:58.541Z,1017.06
2018-09-10T00:57:58.525Z,1017.02
2018-09-10T00:58:58.507Z,1017.05
2018-09-10T00:59:58.491Z,1017.01
2018-09-10T01:00:58.471Z,1017.02
2018-09-10T01:01:58.453Z,1017.00
2018-09-10T01:02:58.435Z,1017.04
2018-09-10T01:03:58.418Z,1017.09
2018-09-10T01:04:58.400Z,1017.11
2018-09-10T01:05:58.382Z,1017.10
2018-09-10T01:06:58.363Z,1017.09
2018-09-10T01:07:58.350Z,1017.09
2018-09-10T01:08:58.328Z,1017.09
2018-09-10T01:09:58.312Z,1017.07
2018-09-10T01:10:58.292Z,1017.05
2018-09-10T01:11:58.283Z,1017.01
2018-09-10T01:12:58.258Z,1017.02
2018-09-10T01:13:58.241Z,1016.98
2018-09-10T01:14:58.221Z,1016.96
2018-09-10T01:15:58.204Z,1016.95
2018-09-10T01:16:58.188Z,1016.95
2018-09-10T01:17:58.167Z,1016.95
2018-09-10T01:18:58.150Z,1016.95
2018-09-10T01:19:58.130Z,1016.87
2018-09-10T01:20:58.123Z,1016.92
2018-09-10T01:21:58.096Z,1016.91
2018-09-10T01:22:58.079Z,1016.89
2018-09-10T01:23:58.058Z,1016.92
2018-09-10T01:24:58.042Z,1016.87
2018-09-10T01:25:58.023Z,1016.88
2018-09-10T01:26:58.005Z,1016.90
2018-09-10T01:27:57.988Z,1016.89
2018-09-10T01:28:57.970Z,1016.93
2018-09-10T01:29:57.955Z,1016.96
2018-09-10T01:30:57.933Z,1016.95
2018-09-10T01:31:57.920Z,1016.96
2018-09-10T01:32:57.897Z,1016.95
2018-09-10T01:33:57.879Z,1016.96
2018-09-10T01:34:57.866Z,1016.96
2018-09-10T01:35:57.845Z,1016.95
2018-09-10T01:36:57.826Z,1016.98
2018-09-10T01:37:57.806Z,1016.95
2018-09-10T01:38:57.789Z,1016.96
2018-09-10T01:39:57.771Z,1016.94
2018-09-10T01:40:57.752Z,1016.97
2018-09-10T01:41:57.740Z,1016.96
2018-09-10T01:42:57.717Z,1016.91
2018-09-10T01:43:57.709Z,1016.90
2018-09-10T01:44:57.683Z,1016.89
2018-09-10T01:45:57.669Z,1016.88
2018-09-10T01:46:57.645Z,1016.88
2018-09-10T01:47:57.626Z,1016.86
2018-09-10T01:48:57.609Z,1016.87
2018-09-10T01:49:57.590Z,1016.90
2018-09-10T01:50:57.571Z,1016.87
2018-09-10T01:51:57.554Z,1016.88
2018-09-10T01:52:57.537Z,1016.87
2018-09-10T01:53:57.519Z,1016.87
2018-09-10T01:54:57.499Z,1016.83
2018-09-10T01:55:57.485Z,1016.83
2018-09-10T01:56:57.463Z,1016.79
2018-09-10T01:57:57.444Z,1016.79
2018-09-10T01:58:57.425Z,1016.78
2018-09-10T01:59:57.410Z,1016.77
2018-09-10T02:00:57.390Z,1016.75
2018-09-10T02:01:57.376Z,1016.75
2018-09-10T02:02:57.361Z,1016.71
2018-09-10T02:03:57.339Z,1016.71
2018-09-10T02:04:57.358Z,1016.65
2018-09-10T02:05:57.299Z,1016.66
2018-09-10T02:06:57.282Z,1016.65
2018-09-10T02:07:57.264Z,1016.66
2018-09-10T02:08:57.246Z,1016.71
2018-09-10T02:09:57.229Z,1016.70
2018-09-10T02:10:57.207Z,1016.72
2018-09-10T02:11:57.188Z,1016.74
2018-09-10T02:12:57.170Z,1016.70
2018-09-10T02:13:57.153Z,1016.66
2018-09-10T02:14:57.134Z,1016.69
2018-09-10T02:15:57.114Z,1016.67
2018-09-10T02:16:57.146Z,1016.63
2018-09-10T02:17:57.082Z,1016.58
2018-09-10T02:18:57.062Z,1016.56
2018-09-10T02:19:57.045Z,1016.52
2018-09-10T02:20:57.023Z,1016.49
2018-09-10T02:21:57.009Z,1016.49
2018-09-10T02:22:56.988Z,1016.46
2018-09-10T02:23:56.968Z,1016.49
2018-09-10T02:24:56.953Z,1016.48
2018-09-10T02:25:56.946Z,1016.46
2018-09-10T02:26:56.913Z,1016.48
2018-09-10T02:27:56.896Z,1016.48
2018-09-10T02:28:56.876Z,1016.48
2018-09-10T02:29:56.858Z,1016.46
2018-09-10T02:30:56.837Z,1016.56
2018-09-10T02:31:56.821Z,1016.56
2018-09-10T02:32:56.802Z,1016.55
2018-09-10T02:33:56.784Z,1016.58
2018-09-10T02:34:56.767Z,1016.62
2018-09-10T02:35:56.746Z,1016.60
2018-09-10T02:36:56.730Z,1016.63
2018-09-10T02:37:56.711Z,1016.68
2018-09-10T02:38:56.693Z,1016.71
2018-09-10T02:39:56.674Z,1016.71
2018-09-10T02:40:56.656Z,1016.77
2018-09-10T02:41:56.641Z,1016.76
2018-09-10T02:42:56.620Z,1016.73
2018-09-10T02:43:56.615Z,1016.75
2018-09-10T02:44:56.584Z,1016.71
2018-09-10T02:45:56.567Z,1016.73
2018-09-10T02:46:56.550Z,1016.77
2018-09-10T02:47:56.529Z,1016.72
2018-09-10T02:48:56.521Z,1016.70
2018-09-10T02:49:56.496Z,1016.69
2018-09-10T02:50:56.472Z,1016.69
2018-09-10T02:51:56.456Z,1016.69
2018-09-10T02:52:56.444Z,1016.70
2018-09-10T02:53:56.423Z,1016.70
2018-09-10T02:54:56.431Z,1016.74
2018-09-10T02:55:56.382Z,1016.78
2018-09-10T02:56:56.380Z,1016.78
2018-09-10T02:57:56.352Z,1016.82
2018-09-10T02:58:56.328Z,1016.78
2018-09-10T02:59:56.309Z,1016.79
2018-09-10T03:00:56.298Z,1016.79
2018-09-10T03:01:56.282Z,1016.77
2018-09-10T03:02:56.256Z,1016.75
2018-09-10T03:03:56.241Z,1016.73
2018-09-10T03:04:56.221Z,1016.73
2018-09-10T03:05:56.204Z,1016.73
2018-09-10T03:06:56.187Z,1016.72
2018-09-10T03:07:56.165Z,1016.75
2018-09-10T03:08:56.148Z,1016.71
2018-09-10T03:09:56.162Z,1016.70
2018-09-10T03:10:56.112Z,1016.74
2018-09-10T03:11:56.095Z,1016.75
2018-09-10T03:12:56.076Z,1016.73
2018-09-10T03:13:56.057Z,1016.73
2018-09-10T03:14:56.039Z,1016.76
2018-09-10T03:15:56.023Z,1016.73
2018-09-10T03:16:56.002Z,1016.68
2018-09-10T03:17:56.001Z,1016.71
2018-09-10T03:18:55.967Z,1016.64
2018-09-10T03:19:55.948Z,1016.66
2018-09-10T03:20:55.930Z,1016.64
2018-09-10T03:21:55.913Z,1016.62
2018-09-10T03:22:55.895Z,1016.63
2018-09-10T03:23:55.915Z,1016.64
2018-09-10T03:24:55.860Z,1016.64
2018-09-10T03:25:55.839Z,1016.60
2018-09-10T03:26:55.825Z,1016.59
2018-09-10T03:27:55.803Z,1016.60
2018-09-10T03:28:55.787Z,1016.60
2018-09-10T03:29:55.766Z,1016.58
2018-09-10T03:30:55.750Z,1016.59
2018-09-10T03:31:55.731Z,1016.63
2018-09-10T03:32:55.713Z,1016.64
2018-09-10T03:33:55.695Z,1016.66
2018-09-10T03:34:55.675Z,1016.73
2018-09-10T03:35:55.662Z,1016.69
2018-09-10T03:36:55.641Z,1016.69
2018-09-10T03:37:55.622Z,1016.65
2018-09-10T03:38:55.601Z,1016.70
2018-09-10T03:39:55.586Z,1016.73
2018-09-10T03:40:55.567Z,1016.74
2018-09-10T03:41:55.550Z,1016.73
2018-09-10T03:42:55.531Z,1016.70
2018-09-10T03:43:55.513Z,1016.69
2018-09-10T03:44:55.494Z,1016.67
2018-09-10T03:45:55.477Z,1016.67
2018-09-10T03:46:55.458Z,1016.66
2018-09-10T03:47:55.444Z,1016.67
2018-09-10T03:48:55.424Z,1016.70
2018-09-10T03:49:55.404Z,1016.70
2018-09-10T03:50:55.385Z,1016.72
2018-09-10T03:51:55.368Z,1016.70
2018-09-10T03:52:55.353Z,1016.73
2018-09-10T03:53:55.336Z,1016.73
2018-09-10T03:54:55.316Z,1016.77
2018-09-10T03:55:55.296Z,1016.75
2018-09-10T03:56:55.278Z,1016.77
2018-09-10T03:57:55.260Z,1016.78
2018-09-10T03:58:55.239Z,1016.80
2018-09-10T03:59:55.221Z,1016.76
2018-09-10T04:00:55.204Z,1016.75
2018-09-10T04:01:55.187Z,1016.74
2018-09-10T04:02:55.167Z,1016.81
2018-09-10T04:03:55.152Z,1016.83
2018-09-10T04:04:55.132Z,1016.80
2018-09-10T04:05:55.111Z,1016.75
2018-09-10T04:06:55.094Z,1016.77
2018-09-10T04:07:55.073Z,1016.79
2018-09-10T04:08:55.057Z,1016.77
2018-09-10T04:09:55.045Z,1016.81
2018-09-10T04:10:55.024Z,1016.79
2018-09-10T04:11:55.002Z,1016.82
2018-09-10T04:12:54.985Z,1016.80
2018-09-10T04:13:54.965Z,1016.77
2018-09-10T04:14:54.950Z,1016.77
2018-09-10T04:15:54.930Z,1016.77
2018-09-10T04:16:54.916Z,1016.75
2018-09-10T04:17:54.902Z,1016.75
2018-09-10T04:18:54.875Z,1016.76
2018-09-10T04:19:54.857Z,1016.81
2018-09-10T04:20:54.840Z,1016.73
2018-09-10T04:21:54.820Z,1016.77
2018-09-10T04:22:54.801Z,1016.77
2018-09-10T04:23:54.784Z,1016.74
2018-09-10T04:24:54.765Z,1016.74
2018-09-10T04:25:54.761Z,1016.75
2018-09-10T04:26:54.726Z,1016.79
2018-09-10T04:27:54.710Z,1016.78
2018-09-10T04:28:54.691Z,1016.80
2018-09-10T04:29:54.672Z,1016.78
2018-09-10T04:30:54.664Z,1016.77
2018-09-10T04:31:54.635Z,1016.82
2018-09-10T04:32:54.620Z,1016.80
2018-09-10T04:33:54.598Z,1016.83
2018-09-10T04:34:54.581Z,1016.79
2018-09-10T04:35:54.605Z,1016.81
2018-09-10T04:36:54.544Z,1016.88
2018-09-10T04:37:54.524Z,1016.87
2018-09-10T04:38:54.506Z,1016.83
2018-09-10T04:39:54.487Z,1016.85
2018-09-10T04:40:54.470Z,1016.85
2018-09-10T04:41:54.451Z,1016.82
2018-09-10T04:42:54.432Z,1016.83
2018-09-10T04:43:54.419Z,1016.82
2018-09-10T04:44:54.395Z,1016.85
2018-09-10T04:45:54.382Z,1016.87
2018-09-10T04:46:54.356Z,1016.85
2018-09-10T04:47:54.341Z,1016.82
2018-09-10T04:48:54.323Z,1016.85
2018-09-10T04:49:54.303Z,1016.81
2018-09-10T04:50:54.284Z,1016.79
2018-09-10T04:51:54.266Z,1016.84
2018-09-10T04:52:54.247Z,1016.77
2018-09-10T04:53:54.239Z,1016.79
2018-09-10T04:54:54.211Z,1016.81
2018-09-10T04:55:54.192Z,1016.81
2018-09-10T04:56:54.182Z,1016.78
2018-09-10T04:57:54.218Z,1016.83
2018-09-10T04:58:54.138Z,1016.78
2018-09-10T04:59:54.130Z,1016.84
2018-09-10T05:00:54.104Z,1016.80
2018-09-10T05:01:54.086Z,1016.83
2018-09-10T05:02:54.061Z,1016.78
2018-09-10T05:03:54.045Z,1016.77
2018-09-10T05:04:54.026Z,1016.74
2018-09-10T05:05:54.010Z,1016.73
2018-09-10T05:06:53.989Z,1016.74
2018-09-10T05:07:53.969Z,1016.78
2018-09-10T05:08:53.952Z,1016.79
2018-09-10T05:09:53.956Z,1016.78
2018-09-10T05:10:53.916Z,1016.80
2018-09-10T05:11:53.897Z,1016.79
2018-09-10T05:12:53.879Z,1016.80
2018-09-10T05:13:53.861Z,1016.84
2018-09-10T05:14:53.841Z,1016.86
2018-09-10T05:15:53.823Z,1016.87
2018-09-10T05:16:53.804Z,1016.91
2018-09-10T05:17:53.787Z,1016.91
2018-09-10T05:18:53.769Z,1016.95
2018-09-10T05:19:53.750Z,1016.93
2018-09-10T05:20:53.732Z,1016.94
2018-09-10T05:21:53.734Z,1016.91
2018-09-10T05:22:53.695Z,1016.94
2018-09-10T05:23:53.676Z,1016.88
2018-09-10T05:24:53.660Z,1016.90
2018-09-10T05:25:53.641Z,1016.93
2018-09-10T05:26:53.626Z,1016.88
2018-09-10T05:27:53.605Z,1016.87
2018-09-10T05:28:53.590Z,1016.84
2018-09-10T05:29:53.568Z,1016.88
2018-09-10T05:30:53.551Z,1016.83
2018-09-10T05:31:53.535Z,1016.79
2018-09-10T05:32:53.513Z,1016.82
2018-09-10T05:33:53.496Z,1016.84
2018-09-10T05:34:53.475Z,1016.82
2018-09-10T05:35:53.460Z,1016.87
2018-09-10T05:36:53.441Z,1016.89
2018-09-10T05:37:53.422Z,1016.88
2018-09-10T05:38:53.410Z,1016.92
2018-09-10T05:39:53.387Z,1016.90
2018-09-10T05:40:53.369Z,1016.93
2018-09-10T05:41:53.354Z,1016.95
2018-09-10T05:42:53.336Z,1016.91
2018-09-10T05:43:53.315Z,1016.94
2018-09-10T05:44:53.296Z,1016.98
2018-09-10T05:45:53.278Z,1016.95
2018-09-10T05:46:53.262Z,1017.02
2018-09-10T05:47:53.244Z,1017.01
2018-09-10T05:48:53.225Z,1017.11
2018-09-10T05:49:53.208Z,1017.06
2018-09-10T05:50:53.200Z,1017.04
2018-09-10T05:51:53.171Z,1017.06
2018-09-10T05:52:53.156Z,1017.08
2018-09-10T05:53:53.138Z,1017.07
2018-09-10T05:54:53.122Z,1017.03
2018-09-10T05:55:53.104Z,1017.05
2018-09-10T05:56:53.091Z,1017.05
2018-09-10T05:57:53.067Z,1017.09
2018-09-10T05:58:53.048Z,1017.06
2018-09-10T05:59:53.032Z,1017.07
2018-09-10T06:00:53.014Z,1017.08
2018-09-10T06:01:52.997Z,1017.09
2018-09-10T06:02:52.978Z,1017.08
2018-09-10T06:03:52.960Z,1017.13
2018-09-10T06:04:52.944Z,1017.11
2018-09-10T06:05:52.927Z,1017.12
2018-09-10T06:06:52.908Z,1017.11
2018-09-10T06:07:52.892Z,1017.07
2018-09-10T06:08:52.874Z,1017.11
2018-09-10T06:09:52.854Z,1017.11
2018-09-10T06:10:52.849Z,1017.12
2018-09-10T06:11:52.819Z,1017.15
2018-09-10T06:12:52.800Z,1017.17
2018-09-10T06:13:52.786Z,1017.18
2018-09-10T06:14:52.767Z,1017.19
2018-09-10T06:15:52.752Z,1017.18
2018-09-10T06:16:52.733Z,1017.20
2018-09-10T06:17:52.716Z,1017.20
2018-09-10T06:18:52.697Z,1017.22
2018-09-10T06:19:52.682Z,1017.24
2018-09-10T06:20:52.663Z,1017.22
2018-09-10T06:21:52.646Z,1017.19
2018-09-10T06:22:52.627Z,1017.23
2018-09-10T06:23:52.610Z,1017.21
2018-09-10T06:24:52.595Z,1017.19
2018-09-10T06:25:52.575Z,1017.18
2018-09-10T06:26:52.572Z,1017.12
2018-09-10T06:27:52.541Z,1017.12
2018-09-10T06:28:52.523Z,1017.13
2018-09-10T06:29:52.546Z,1017.19
2018-09-10T06:30:52.489Z,1017.17
2018-09-10T06:31:52.476Z,1017.19
2018-09-10T06:32:52.456Z,1017.20
2018-09-10T06:33:52.437Z,1017.22
2018-09-10T06:34:52.423Z,1017.34
2018-09-10T06:35:52.403Z,1017.44
2018-09-10T06:36:52.390Z,1017.47
2018-09-10T06:37:52.372Z,1017.49
2018-09-10T06:38:52.352Z,1017.55
2018-09-10T06:39:52.345Z,1017.62
2018-09-10T06:40:52.319Z,1017.63
2018-09-10T06:41:52.303Z,1017.63
2018-09-10T06:42:52.288Z,1017.67
2018-09-10T06:43:52.269Z,1017.65
2018-09-10T06:44:52.255Z,1017.68
2018-09-10T06:45:52.234Z,1017.63
2018-09-10T06:46:52.222Z,1017.63
2018-09-10T06:47:52.262Z,1017.62
2018-09-10T06:48:52.188Z,1017.58
2018-09-10T06:49:52.171Z,1017.64
2018-09-10T06:50:52.156Z,1017.64
2018-09-10T06:51:52.137Z,1017.60
2018-09-10T06:52:52.123Z,1017.59
2018-09-10T06:53:52.102Z,1017.59
2018-09-10T06:54:52.149Z,1017.58
2018-09-10T06:55:52.076Z,1017.62
2018-09-10T06:56:52.054Z,1017.62
2018-09-10T06:57:52.040Z,1017.62
2018-09-10T06:58:52.024Z,1017.77
2018-09-10T06:59:52.008Z,1017.68
2018-09-10T07:00:51.991Z,1017.54
2018-09-10T07:01:51.980Z,1017.45
2018-09-10T07:02:51.960Z,1017.44
2018-09-10T07:03:51.946Z,1017.47
2018-09-10T07:04:51.932Z,1017.53
2018-09-10T07:05:51.917Z,1017.56
2018-09-10T07:06:51.901Z,1017.58
2018-09-10T07:07:51.886Z,1017.80
2018-09-10T07:08:51.871Z,1018.13
2018-09-10T07:09:51.859Z,1018.18
2018-09-10T07:10:51.841Z,1018.12
2018-09-10T07:11:51.827Z,1018.17
2018-09-10T07:12:51.891Z,1018.29
2018-09-10T07:13:51.799Z,1018.77
2018-09-10T07:14:51.785Z,1018.43
2018-09-10T07:15:51.772Z,1018.21
2018-09-10T07:16:51.765Z,1018.07
2018-09-10T07:17:51.743Z,1018.85
2018-09-10T07:18:51.918Z,1018.17
2018-09-10T07:19:51.717Z,1018.39
2018-09-10T07:20:51.703Z,1018.51
2018-09-10T07:21:51.692Z,1018.88
2018-09-10T07:22:51.678Z,1018.53
2018-09-10T07:23:51.666Z,1019.38
2018-09-10T07:24:51.654Z,1018.30
2018-09-10T07:25:51.641Z,1019.19
2018-09-10T07:26:51.634Z,1018.74
2018-09-10T07:27:51.622Z,1020.24
2018-09-10T07:28:51.608Z,1019.15
2018-09-10T07:29:51.599Z,1019.57
2018-09-10T07:30:51.582Z,1021.63
2018-09-10T07:31:51.581Z,1021.58
2018-09-10T07:32:51.566Z,1022.59
2018-09-10T07:33:51.551Z,1022.24
2018-09-10T07:34:51.545Z,1023.24
2018-09-10T07:35:51.537Z,1024.70
2018-09-10T07:36:51.523Z,1025.07
2018-09-10T07:37:51.514Z,1027.09
2018-09-10T07:38:51.506Z,1027.61
2018-09-10T07:39:51.494Z,1028.30
2018-09-10T07:40:51.483Z,1029.36
2018-09-10T07:41:51.474Z,1030.50
2018-09-10T07:42:51.470Z,1031.09
2018-09-10T07:43:51.544Z,1031.62
2018-09-10T07:44:51.452Z,1032.85
2018-09-10T07:45:51.443Z,1032.87
2018-09-10T07:46:51.436Z,1033.41
2018-09-10T07:47:51.427Z,1033.72
2018-09-10T07:48:51.431Z,1032.89
2018-09-10T07:49:51.419Z,1034.75
2018-09-10T07:50:51.407Z,1035.23
2018-09-10T07:51:51.402Z,1032.68
2018-09-10T07:52:51.395Z,1036.12
2018-09-10T07:53:51.396Z,1036.77
2018-09-10T07:54:51.385Z,1034.96
2018-09-10T07:55:51.383Z,1032.20
2018-09-10T07:56:51.376Z,1038.24
2018-09-10T07:57:51.367Z,1039.12
2018-09-10T07:58:51.362Z,1039.02
2018-09-10T07:59:51.360Z,1037.63
2018-09-10T08:00:51.487Z,1035.35
2018-09-10T08:01:51.349Z,1034.35
2018-09-10T08:02:51.414Z,1035.90
2018-09-10T08:03:52.858Z,1038.21
2018-09-10T08:04:51.334Z,1040.60
2018-09-10T08:05:51.329Z,1040.88
2018-09-10T08:06:51.325Z,1040.23
2018-09-10T08:07:51.321Z,1040.36
2018-09-10T08:08:51.316Z,1041.36
2018-09-10T08:09:51.315Z,1042.47
2018-09-10T08:10:51.307Z,1043.02
2018-09-10T08:11:51.304Z,1043.25
2018-09-10T08:12:51.303Z,1043.12
2018-09-10T08:13:51.300Z,1042.61
2018-09-10T08:14:51.300Z,1041.86
2018-09-10T08:15:51.290Z,1041.70
2018-09-10T08:16:51.333Z,1041.95
2018-09-10T08:17:51.283Z,1042.28
2018-09-10T08:18:51.279Z,1040.81
2018-09-10T08:19:51.276Z,1037.90
2018-09-10T08:20:51.273Z,1036.02
2018-09-10T08:21:51.274Z,1036.48
2018-09-10T08:22:51.267Z,1038.05
2018-09-10T08:23:51.265Z,1037.50
2018-09-10T08:24:51.260Z,1039.65
2018-09-10T08:25:51.258Z,1035.37
2018-09-10T08:26:51.254Z,1030.30
2018-09-10T08:27:51.250Z,1028.43
2018-09-10T08:28:51.247Z,1028.41
2018-09-10T08:29:51.246Z,1027.05
2018-09-10T08:30:51.243Z,1029.87
2018-09-10T08:31:51.256Z,1031.07
2018-09-10T08:32:51.238Z,1034.63
2018-09-10T08:33:51.234Z,1030.89
2018-09-10T08:34:51.231Z,1033.96
2018-09-10T08:35:51.229Z,1034.30
2018-09-10T08:36:51.225Z,1034.47
2018-09-10T08:37:51.224Z,1034.84
2018-09-10T08:38:51.243Z,1034.24
2018-09-10T08:39:51.217Z,1033.35
2018-09-10T08:40:51.243Z,1031.61
2018-09-10T08:41:51.221Z,1030.88
2018-09-10T08:42:51.235Z,1030.32
2018-09-10T08:43:51.211Z,1030.06
2018-09-10T08:44:51.205Z,1031.03
2018-09-10T08:45:51.202Z,1029.90
2018-09-10T08:46:51.199Z,1028.69
2018-09-10T08:47:51.197Z,1026.48
2018-09-10T08:48:51.197Z,1025.99
2018-09-10T08:49:51.192Z,1025.91
2018-09-10T08:50:51.189Z,1025.39
2018-09-10T08:51:51.189Z,1024.10
2018-09-10T08:52:51.185Z,1023.62
2018-09-10T08:53:51.251Z,1023.59
2018-09-10T08:54:51.639Z,1024.16
2018-09-10T08:55:51.360Z,1024.08
2018-09-10T08:56:51.177Z,1024.34
2018-09-10T08:57:51.175Z,1025.06
2018-09-10T08:58:51.172Z,1025.10
2018-09-10T08:59:51.169Z,1024.64
2018-09-10T09:00:51.375Z,1024.27
2018-09-10T09:01:51.203Z,1023.60
2018-09-10T09:02:51.165Z,1023.07
2018-09-10T09:03:51.162Z,1022.47
2018-09-10T09:04:51.183Z,1022.81
2018-09-10T09:05:51.164Z,1022.82
2018-09-10T09:06:51.154Z,1022.49
2018-09-10T09:07:51.216Z,1021.97
2018-09-10T09:08:51.151Z,1021.07
2018-09-10T09:09:51.151Z,1020.55
2018-09-10T09:10:51.148Z,1020.12
2018-09-10T09:11:51.155Z,1019.79
2018-09-10T09:12:51.145Z,1018.65
2018-09-10T09:13:51.144Z,1018.64
2018-09-10T09:14:51.140Z,1018.35
2018-09-10T09:15:51.138Z,1018.23
2018-09-10T09:16:51.137Z,1018.12
2018-09-10T09:17:51.137Z,1017.99
2018-09-10T09:18:51.134Z,1017.91
2018-09-10T09:19:51.132Z,1017.90
2018-09-10T09:20:51.129Z,1017.91
2018-09-10T09:21:51.127Z,1017.84
2018-09-10T09:22:51.125Z,1017.76
2018-09-10T09:23:51.123Z,1017.64
2018-09-10T09:24:51.123Z,1017.58
2018-09-10T09:25:51.118Z,1017.52
2018-09-10T09:26:51.116Z,1017.44
2018-09-10T09:27:51.112Z,1017.51
2018-09-10T09:28:51.112Z,1017.50
2018-09-10T09:29:51.149Z,1017.49
2018-09-10T09:30:51.104Z,1017.50
2018-09-10T09:31:51.104Z,1017.56
2018-09-10T09:32:51.099Z,1017.48
2018-09-10T09:33:51.096Z,1017.45
2018-09-10T09:34:51.092Z,1017.43
2018-09-10T09:35:51.091Z,1017.38
2018-09-10T09:36:51.087Z,1017.35
2018-09-10T09:37:51.087Z,1017.34
2018-09-10T09:38:51.083Z,1017.35
2018-09-10T09:39:51.075Z,1017.35
2018-09-10T09:40:51.072Z,1017.32
2018-09-10T09:41:51.067Z,1017.21
2018-09-10T09:42:51.066Z,1017.18
2018-09-10T09:43:51.065Z,1017.19
2018-09-10T09:44:51.064Z,1017.11
2018-09-10T09:45:51.053Z,1017.10
2018-09-10T09:46:51.049Z,1017.03
2018-09-10T09:47:51.043Z,1016.98
2018-09-10T09:48:51.039Z,1016.99
2018-09-10T09:49:51.038Z,1016.97
2018-09-10T09:50:51.074Z,1016.96
2018-09-10T09:51:51.025Z,1016.94
2018-09-10T09:52:51.023Z,1016.95
2018-09-10T09:53:51.017Z,1016.86
2018-09-10T09:54:51.013Z,1016.87
2018-09-10T09:55:51.005Z,1016.92
2018-09-10T09:56:51.006Z,1016.92
2018-09-10T09:57:50.995Z,1016.87
2018-09-10T09:58:50.994Z,1016.86
2018-09-10T09:59:50.990Z,1016.84
2018-09-10T10:00:50.980Z,1016.87
2018-09-10T10:01:50.980Z,1016.87
2018-09-10T10:02:50.967Z,1016.88
2018-09-10T10:03:50.963Z,1016.89
2018-09-10T10:04:50.959Z,1016.92
2018-09-10T10:05:50.954Z,1016.86
2018-09-10T10:06:50.948Z,1016.85
2018-09-10T10:07:50.940Z,1016.91
2018-09-10T10:08:50.936Z,1016.96
2018-09-10T10:09:50.931Z,1016.90
2018-09-10T10:10:50.923Z,1016.88
2018-09-10T10:11:51.048Z,1016.94
2018-09-10T10:12:50.912Z,1016.93
2018-09-10T10:13:50.908Z,1017.03
2018-09-10T10:14:50.898Z,1017.04
2018-09-10T10:15:50.891Z,1017.08
2018-09-10T10:16:50.891Z,1017.10
2018-09-10T10:17:50.890Z,1017.16
2018-09-10T10:18:50.873Z,1017.20
2018-09-10T10:19:50.870Z,1017.28
2018-09-10T10:20:50.863Z,1017.34
2018-09-10T10:21:50.859Z,1017.23
2018-09-10T10:22:50.849Z,1017.15
2018-09-10T10:23:50.842Z,1017.10
2018-09-10T10:24:50.838Z,1017.11
2018-09-10T10:25:50.844Z,1017.19
2018-09-10T10:26:50.827Z,1017.22
2018-09-10T10:27:50.832Z,1017.39
2018-09-10T10:28:50.817Z,1017.45
2018-09-10T10:29:50.810Z,1017.47
2018-09-10T10:30:50.804Z,1017.53
2018-09-10T10:31:50.809Z,1017.40
2018-09-10T10:32:50.795Z,1017.37
2018-09-10T10:33:50.785Z,1017.32
2018-09-10T10:34:50.778Z,1017.44
2018-09-10T10:35:50.774Z,1017.47
2018-09-10T10:36:50.772Z,1017.61
2018-09-10T10:37:50.765Z,1017.76
2018-09-10T10:38:50.755Z,1017.80
2018-09-10T10:39:50.751Z,1017.82
2018-09-10T10:40:50.750Z,1017.83
2018-09-10T10:41:50.745Z,1017.76
2018-09-10T10:42:50.736Z,1017.81
2018-09-10T10:43:50.732Z,1017.69
2018-09-10T10:44:50.728Z,1017.57
2018-09-10T10:45:50.724Z,1017.20
2018-09-10T10:46:50.719Z,1017.14
2018-09-10T10:47:50.713Z,1017.13
2018-09-10T10:48:50.712Z,1017.41
2018-09-10T10:49:50.707Z,1017.55
2018-09-10T10:50:50.702Z,1017.61
2018-09-10T10:51:50.696Z,1017.62
2018-09-10T10:52:50.699Z,1017.57
2018-09-10T10:53:50.724Z,1017.60
2018-09-10T10:54:50.680Z,1017.41
2018-09-10T10:55:50.683Z,1017.27
2018-09-10T10:56:50.674Z,1017.14
2018-09-10T10:57:50.670Z,1017.21
2018-09-10T10:58:50.667Z,1017.04
2018-09-10T10:59:50.661Z,1016.98
2018-09-10T11:00:50.656Z,1016.90
2018-09-10T11:01:50.655Z,1016.80
2018-09-10T11:02:50.648Z,1016.76
2018-09-10T11:03:50.644Z,1016.70
2018-09-10T11:04:50.642Z,1016.71
2018-09-10T11:05:50.639Z,1016.66
2018-09-10T11:06:50.633Z,1016.75
2018-09-10T11:07:50.628Z,1016.68
2018-09-10T11:08:50.625Z,1016.61
2018-09-10T11:09:50.624Z,1016.60
2018-09-10T11:10:50.619Z,1016.57
2018-09-10T11:11:50.613Z,1016.63
2018-09-10T11:12:50.607Z,1016.62
2018-09-10T11:13:50.607Z,1016.64
2018-09-10T11:14:50.598Z,1016.66
2018-09-10T11:15:50.593Z,1016.69
2018-09-10T11:16:50.588Z,1016.80
2018-09-10T11:17:50.585Z,1016.88
2018-09-10T11:18:50.581Z,1016.91
2018-09-10T11:19:50.575Z,1016.94
2018-09-10T11:20:50.570Z,1017.20
2018-09-10T11:21:50.565Z,1017.41
2018-09-10T11:22:50.566Z,1017.53
2018-09-10T11:23:50.555Z,1017.34
2018-09-10T11:24:50.550Z,1017.51
2018-09-10T11:25:50.547Z,1017.61
2018-09-10T11:26:50.544Z,1017.46
2018-09-10T11:27:50.627Z,1017.36
2018-09-10T11:28:50.534Z,1017.34
2018-09-10T11:29:50.530Z,1017.15
2018-09-10T11:30:50.526Z,1016.89
2018-09-10T11:31:50.524Z,1016.67
2018-09-10T11:32:50.515Z,1016.62
2018-09-10T11:33:50.511Z,1016.53
2018-09-10T11:34:50.514Z,1016.51
2018-09-10T11:35:50.504Z,1016.56
2018-09-10T11:36:50.500Z,1016.61
2018-09-10T11:37:50.498Z,1016.53
2018-09-10T11:38:50.492Z,1016.50
2018-09-10T11:39:50.487Z,1016.51
2018-09-10T11:40:50.632Z,1016.53
2018-09-10T11:41:50.479Z,1016.68
2018-09-10T11:42:50.474Z,1016.78
2018-09-10T11:43:50.470Z,1017.10
2018-09-10T11:44:50.464Z,1017.22
2018-09-10T11:45:50.460Z,1017.41
2018-09-10T11:46:50.457Z,1017.54
2018-09-10T11:47:50.453Z,1017.27
2018-09-10T11:48:50.458Z,1017.34
2018-09-10T11:49:50.442Z,1017.21
2018-09-10T11:50:50.439Z,1017.05
2018-09-10T11:51:50.435Z,1017.48
2018-09-10T11:52:50.431Z,1017.49
2018-09-10T11:53:50.427Z,1017.38
2018-09-10T11:54:50.422Z,1017.41
2018-09-10T11:55:50.539Z,1016.95
2018-09-10T11:56:50.417Z,1016.92
2018-09-10T11:57:50.410Z,1016.89
2018-09-10T11:58:50.407Z,1016.84
2018-09-10T11:59:50.408Z,1016.71
2018-09-10T12:00:50.400Z,1016.87
2018-09-10T12:01:50.445Z,1016.87
2018-09-10T12:02:50.393Z,1016.72
2018-09-10T12:03:50.392Z,1016.78
2018-09-10T12:04:50.385Z,1016.65
2018-09-10T12:05:50.382Z,1016.77